createdAt,value
2022-10-05T00:01:31.735Z,98835.84
2022-10-05T00:04:21.600Z,98839.19
2022-10-05T00:06:56.679Z,98841.59
2022-10-05T00:09:23.713Z,98844.22
2022-10-05T00:11:51.227Z,98840.16
2022-10-05T00:14:21.663Z,98842.50
2022-10-05T00:16:49.236Z,98839.06
2022-10-05T00:19:33.643Z,98845.75
2022-10-05T00:22:14.588Z,98842.81
2022-10-05T00:24:41.331Z,98846.84
2022-10-05T00:27:16.878Z,98840.53
2022-10-05T00:29:43.854Z,98838.59
2022-10-05T00:32:10.977Z,98834.66
2022-10-05T00:34:37.956Z,98833.91
2022-10-05T00:37:05.908Z,98825.34
2022-10-05T00:39:33.609Z,98823.78
2022-10-05T00:42:10.705Z,98822.56
2022-10-05T00:44:57.035Z,98828.69
2022-10-05T00:47:56.151Z,98831.63
2022-10-05T00:50:49.524Z,98821.28
2022-10-05T00:53:36.750Z,98822.19
2022-10-05T00:56:35.308Z,98822.88
2022-10-05T00:59:20.731Z,98820.66
2022-10-05T01:01:53.625Z,98818.56
2022-10-05T01:04:34.344Z,98823.47
2022-10-05T01:07:22.166Z,98815.63
2022-10-05T01:09:56.854Z,98823.09
2022-10-05T01:12:27.011Z,98825.50
2022-10-05T01:15:20.869Z,98828.16
2022-10-05T01:18:01.145Z,98823.81
2022-10-05T01:20:30.782Z,98828.00
2022-10-05T01:23:23.738Z,98825.22
2022-10-05T01:26:28.108Z,98817.00
2022-10-05T01:29:03.468Z,98805.66
2022-10-05T01:32:14.894Z,98814.13
2022-10-05T01:34:44.785Z,98813.53
2022-10-05T01:37:26.662Z,98816.75
2022-10-05T01:40:02.260Z,98815.94
2022-10-05T01:42:36.498Z,98813.00
2022-10-05T01:45:41.997Z,98817.19
2022-10-05T01:48:11.538Z,98817.09
2022-10-05T01:51:06.839Z,98821.41
2022-10-05T01:53:37.745Z,98814.31
2022-10-05T01:56:30.579Z,98806.78
2022-10-05T01:59:08.110Z,98801.50
2022-10-05T02:01:39.239Z,98804.16
2022-10-05T02:04:37.016Z,98789.94
2022-10-05T02:07:08.709Z,98796.22
2022-10-05T02:09:45.033Z,98791.34
2022-10-05T02:12:18.430Z,98799.78
2022-10-05T02:14:49.684Z,98793.56
2022-10-05T02:17:27.613Z,98796.91
2022-10-05T02:20:00.704Z,98791.41
2022-10-05T02:22:44.474Z,98790.50
2022-10-05T02:25:17.661Z,98787.03
2022-10-05T02:27:53.863Z,98780.13
2022-10-05T02:30:21.109Z,98775.78
2022-10-05T02:33:00.570Z,98779.84
2022-10-05T02:35:27.498Z,98780.13
2022-10-05T02:38:09.150Z,98775.94
2022-10-05T02:40:42.614Z,98763.41
2022-10-05T02:43:39.007Z,98766.06
2022-10-05T02:46:11.574Z,98767.63
2022-10-05T02:48:41.596Z,98765.38
2022-10-05T02:51:20.487Z,98770.34
2022-10-05T02:53:56.739Z,98776.78
2022-10-05T02:56:37.841Z,98783.00
2022-10-05T02:59:13.803Z,98787.50
2022-10-05T03:01:49.658Z,98794.34
2022-10-05T03:04:28.386Z,98793.09
2022-10-05T03:07:10.295Z,98800.81
2022-10-05T03:09:45.511Z,98803.28
2022-10-05T03:12:16.404Z,98797.03
2022-10-05T03:15:11.339Z,98792.00
2022-10-05T03:17:54.346Z,98788.81
2022-10-05T03:20:41.227Z,98789.81
2022-10-05T03:23:15.890Z,98793.31
2022-10-05T03:25:42.404Z,98785.91
2022-10-05T03:28:25.295Z,98785.38
2022-10-05T03:30:51.970Z,98781.34
2022-10-05T03:33:36.831Z,98773.41
2022-10-05T03:36:12.247Z,98774.53
2022-10-05T03:38:48.534Z,98762.25
2022-10-05T03:41:26.678Z,98759.47
2022-10-05T03:44:05.357Z,98755.84
2022-10-05T03:46:50.773Z,98752.50
2022-10-05T03:49:33.116Z,98760.44
2022-10-05T03:52:09.120Z,98747.44
2022-10-05T03:54:43.116Z,98745.66
2022-10-05T03:57:20.107Z,98751.09
2022-10-05T03:59:58.099Z,98737.59
2022-10-05T04:02:28.690Z,98740.09
2022-10-05T04:05:03.969Z,98732.88
2022-10-05T04:07:42.758Z,98729.00
2022-10-05T04:10:17.621Z,98747.50
2022-10-05T04:12:49.539Z,98736.22
2022-10-05T04:15:23.225Z,98734.16
2022-10-05T04:17:56.561Z,98742.50
2022-10-05T04:20:31.050Z,98733.88
2022-10-05T04:23:09.944Z,98740.56
2022-10-05T04:25:42.051Z,98742.09
2022-10-05T04:28:17.835Z,98743.22
2022-10-05T04:30:48.279Z,98737.41
2022-10-05T04:33:16.188Z,98727.66
2022-10-05T04:35:51.241Z,98738.16
2022-10-05T04:38:51.556Z,98739.88
2022-10-05T04:41:48.401Z,98740.47
2022-10-05T04:44:24.899Z,98737.94
2022-10-05T04:47:06.936Z,98738.56
2022-10-05T04:49:57.398Z,98735.13
2022-10-05T04:52:29.286Z,98736.22
2022-10-05T04:55:14.124Z,98745.69
2022-10-05T04:57:43.365Z,98741.38
2022-10-05T05:00:16.534Z,98751.38
2022-10-05T05:02:51.357Z,98757.19
2022-10-05T05:06:15.825Z,98767.94
2022-10-05T05:09:27.885Z,98767.78
2022-10-05T05:12:19.647Z,98776.81
2022-10-05T05:14:57.442Z,98777.66
2022-10-05T05:17:31.382Z,98778.19
2022-10-05T05:20:22.856Z,98779.44
2022-10-05T05:23:12.198Z,98780.56
2022-10-05T05:26:05.976Z,98783.59
2022-10-05T05:28:54.258Z,98775.28
2022-10-05T05:31:33.149Z,98782.38
2022-10-05T05:34:18.250Z,98788.78
2022-10-05T05:37:04.334Z,98786.25
2022-10-05T05:39:42.890Z,98790.00
2022-10-05T05:42:37.469Z,98784.72
2022-10-05T05:45:15.671Z,98791.81
2022-10-05T05:47:51.498Z,98791.25
2022-10-05T05:50:23.010Z,98804.31
2022-10-05T05:52:53.247Z,98799.06
2022-10-05T05:55:30.058Z,98800.44
2022-10-05T05:58:04.546Z,98802.25
2022-10-05T06:00:40.471Z,98801.84
2022-10-05T06:03:13.343Z,98806.13
2022-10-05T06:05:48.038Z,98815.47
2022-10-05T06:08:40.368Z,98808.94
2022-10-05T06:11:30.252Z,98814.06
2022-10-05T06:14:03.948Z,98824.38
2022-10-05T06:17:10.046Z,98828.97
2022-10-05T06:19:37.167Z,98825.03
2022-10-05T06:22:17.464Z,98836.31
2022-10-05T06:25:06.068Z,98838.81
2022-10-05T06:28:04.056Z,98840.06
2022-10-05T06:30:43.543Z,98846.59
2022-10-05T06:33:10.147Z,98857.28
2022-10-05T06:36:02.899Z,98847.09
2022-10-05T06:38:51.489Z,98858.09
2022-10-05T06:41:33.140Z,98853.16
2022-10-05T06:44:16.310Z,98856.91
2022-10-05T06:46:51.999Z,98853.53
2022-10-05T06:50:09.203Z,98860.06
2022-10-05T06:53:07.474Z,98859.50
2022-10-05T06:55:53.503Z,98860.41
2022-10-05T06:58:27.870Z,98858.28
2022-10-05T07:01:04.685Z,98857.88
2022-10-05T07:04:07.784Z,98869.06
2022-10-05T07:06:55.392Z,98861.91
2022-10-05T07:09:45.379Z,98865.91
2022-10-05T07:12:29.908Z,98866.72
2022-10-05T07:15:10.070Z,98869.38
2022-10-05T07:17:36.609Z,98873.09
2022-10-05T07:20:29.518Z,98871.34
2022-10-05T07:23:25.454Z,98868.84
2022-10-05T07:26:20.968Z,98870.81
2022-10-05T07:28:51.163Z,98870.81
2022-10-05T07:31:26.993Z,98861.72
2022-10-05T07:34:03.108Z,98863.53
2022-10-05T07:37:00.578Z,98869.09
2022-10-05T07:40:01.191Z,98866.28
2022-10-05T07:42:49.120Z,98862.69
2022-10-05T07:45:28.920Z,98863.28
2022-10-05T07:47:59.506Z,98867.38
2022-10-05T07:50:44.670Z,98872.47
2022-10-05T07:53:15.647Z,98874.09
2022-10-05T07:55:52.904Z,98873.22
2022-10-05T07:58:29.598Z,98884.06
2022-10-05T08:01:14.127Z,98882.47
2022-10-05T08:04:02.562Z,98879.50
2022-10-05T08:06:40.783Z,98877.22
2022-10-05T08:09:19.430Z,98877.94
2022-10-05T08:12:28.111Z,98876.97
2022-10-05T08:15:14.169Z,98886.63
2022-10-05T08:18:14.757Z,98880.69
2022-10-05T08:20:47.656Z,98875.91
2022-10-05T08:23:36.101Z,98873.75
2022-10-05T08:26:13.097Z,98880.13
2022-10-05T08:28:47.097Z,98879.31
2022-10-05T08:31:27.167Z,98878.63
2022-10-05T08:34:05.473Z,98883.31
2022-10-05T08:36:53.001Z,98864.84
2022-10-05T08:39:21.905Z,98874.31
2022-10-05T08:42:20.946Z,98878.34
2022-10-05T08:45:01.988Z,98868.50
2022-10-05T08:47:57.540Z,98871.69
2022-10-05T08:50:25.775Z,98858.06
2022-10-05T08:52:58.569Z,98859.38
2022-10-05T08:55:38.548Z,98863.19
2022-10-05T08:58:24.331Z,98865.34
2022-10-05T09:01:00.128Z,98859.38
2022-10-05T09:04:08.693Z,98860.53
2022-10-05T09:06:59.341Z,98854.78
2022-10-05T09:10:01.571Z,98858.25
2022-10-05T09:13:03.834Z,98855.31
2022-10-05T09:15:49.510Z,98851.63
2022-10-05T09:18:42.180Z,98844.91
2022-10-05T09:21:14.914Z,98842.19
2022-10-05T09:23:43.066Z,98841.03
2022-10-05T09:26:31.498Z,98843.75
2022-10-05T09:29:21.811Z,98841.03
2022-10-05T09:32:21.893Z,98836.88
2022-10-05T09:34:55.715Z,98839.56
2022-10-05T09:37:33.381Z,98833.53
2022-10-05T09:40:12.481Z,98834.00
2022-10-05T09:42:48.156Z,98831.72
2022-10-05T09:45:36.408Z,98822.72
2022-10-05T09:48:41.624Z,98821.53
2022-10-05T09:51:35.756Z,98817.31
2022-10-05T09:54:21.080Z,98814.91
2022-10-05T09:57:06.094Z,98812.91
2022-10-05T09:59:51.952Z,98810.22
2022-10-05T10:02:50.807Z,98816.16
2022-10-05T10:05:40.792Z,98807.03
2022-10-05T10:08:14.852Z,98810.31
2022-10-05T10:10:56.493Z,98802.06
2022-10-05T10:13:53.530Z,98795.97
2022-10-05T10:16:45.561Z,98795.44
2022-10-05T10:19:30.588Z,98790.34
2022-10-05T10:22:10.557Z,98788.06
2022-10-05T10:25:19.224Z,98783.69
2022-10-05T10:27:54.836Z,98782.38
2022-10-05T10:30:52.353Z,98781.44
2022-10-05T10:33:36.050Z,98780.81
2022-10-05T10:36:08.554Z,98775.81
2022-10-05T10:38:35.062Z,98775.69
2022-10-05T10:41:22.414Z,98772.13
2022-10-05T10:44:26.814Z,98774.59
2022-10-05T10:47:27.598Z,98770.47
2022-10-05T10:50:24.250Z,98766.00
2022-10-05T10:53:19.168Z,98763.25
2022-10-05T10:56:02.557Z,98764.47
2022-10-05T10:58:54.007Z,98755.28
2022-10-05T11:01:30.273Z,98759.06
2022-10-05T11:04:09.482Z,98746.13
2022-10-05T11:07:10.312Z,98740.19
2022-10-05T11:10:14.142Z,98728.06
2022-10-05T11:13:11.184Z,98732.69
2022-10-05T11:16:08.758Z,98730.59
2022-10-05T11:19:03.535Z,98720.34
2022-10-05T11:21:36.866Z,98719.94
2022-10-05T11:24:18.886Z,98708.44
2022-10-05T11:26:51.536Z,98716.28
2022-10-05T11:29:39.217Z,98703.53
2022-10-05T11:32:33.100Z,98695.88
2022-10-05T11:35:29.060Z,98697.97
2022-10-05T11:38:28.049Z,98703.13
2022-10-05T11:41:22.511Z,98686.00
2022-10-05T11:44:06.331Z,98690.16
2022-10-05T11:46:59.321Z,98684.38
2022-10-05T11:49:49.889Z,98686.25
2022-10-05T11:52:26.715Z,98684.00
2022-10-05T11:55:12.258Z,98682.97
2022-10-05T11:57:51.280Z,98676.34
2022-10-05T12:00:21.036Z,98678.41
2022-10-05T12:03:03.917Z,98675.09
2022-10-05T12:05:52.777Z,98675.28
2022-10-05T12:09:07.826Z,98665.56
2022-10-05T12:11:46.685Z,98669.63
2022-10-05T12:14:22.217Z,98664.06
2022-10-05T12:17:02.649Z,98656.38
2022-10-05T12:19:36.546Z,98662.75
2022-10-05T12:22:17.103Z,98658.19
2022-10-05T12:24:46.689Z,98657.03
2022-10-05T12:27:20.943Z,98658.03
2022-10-05T12:29:53.485Z,98649.34
2022-10-05T12:32:30.365Z,98653.28
2022-10-05T12:35:02.312Z,98635.88
2022-10-05T12:37:48.992Z,98650.31
2022-10-05T12:40:24.765Z,98646.84
2022-10-05T12:42:56.925Z,98645.81
2022-10-05T12:45:43.621Z,98635.16
2022-10-05T12:48:16.236Z,98637.56
2022-10-05T12:50:48.454Z,98632.78
2022-10-05T12:53:19.798Z,98636.06
2022-10-05T12:56:00.200Z,98628.84
2022-10-05T12:58:46.115Z,98631.63
2022-10-05T13:01:34.247Z,98627.44
2022-10-05T13:04:28.942Z,98622.72
2022-10-05T13:07:10.074Z,98618.91
2022-10-05T13:09:46.853Z,98623.44
2022-10-05T13:12:23.706Z,98618.03
2022-10-05T13:14:59.189Z,98616.09
2022-10-05T13:17:50.464Z,98608.22
2022-10-05T13:20:34.231Z,98609.19
2022-10-05T13:23:14.868Z,98600.22
2022-10-05T13:25:57.325Z,98609.50
2022-10-05T13:28:30.634Z,98608.63
2022-10-05T13:31:05.773Z,98604.41
2022-10-05T13:33:54.385Z,98603.25
2022-10-05T13:36:53.212Z,98607.50
2022-10-05T13:39:41.011Z,98595.00
2022-10-05T13:42:43.064Z,98601.13
2022-10-05T13:45:24.616Z,98597.16
2022-10-05T13:47:58.498Z,98592.53
2022-10-05T13:50:33.444Z,98590.19
2022-10-05T13:53:13.889Z,98588.25
2022-10-05T13:55:51.598Z,98586.78
2022-10-05T13:58:48.073Z,98590.53
2022-10-05T14:01:18.778Z,98591.38
2022-10-05T14:04:04.605Z,98594.47
2022-10-05T14:06:33.386Z,98592.00
2022-10-05T14:09:02.869Z,98600.72
2022-10-05T14:11:35.066Z,98593.50
2022-10-05T14:14:14.064Z,98592.13
2022-10-05T14:16:50.810Z,98593.56
2022-10-05T14:19:40.754Z,98594.63
2022-10-05T14:22:13.647Z,98595.38
2022-10-05T14:24:56.273Z,98588.84
2022-10-05T14:27:28.906Z,98590.34
2022-10-05T14:29:59.779Z,98605.94
2022-10-05T14:32:30.951Z,98602.78
2022-10-05T14:35:15.089Z,98604.06
2022-10-05T14:37:53.726Z,98603.16
2022-10-05T14:40:34.493Z,98606.91
2022-10-05T14:43:16.321Z,98597.00
2022-10-05T14:45:58.091Z,98605.91
2022-10-05T14:48:29.120Z,98598.13
2022-10-05T14:51:03.352Z,98599.75
2022-10-05T14:53:46.364Z,98596.91
2022-10-05T14:56:50.120Z,98600.50
2022-10-05T14:59:31.923Z,98609.31
2022-10-05T15:02:29.264Z,98600.03
2022-10-05T15:05:02.645Z,98600.81
2022-10-05T15:07:36.241Z,98600.06
2022-10-05T15:10:19.693Z,98593.88
2022-10-05T15:12:48.362Z,98595.72
2022-10-05T15:15:18.108Z,98599.47
2022-10-05T15:17:52.533Z,98597.88
2022-10-05T15:20:52.512Z,98597.78
2022-10-05T15:23:26.221Z,98593.97
2022-10-05T15:26:14.818Z,98599.34
2022-10-05T15:28:48.498Z,98597.09
2022-10-05T15:31:37.704Z,98592.22
2022-10-05T15:34:09.843Z,98600.28
2022-10-05T15:37:07.998Z,98602.81
2022-10-05T15:39:40.706Z,98592.56
2022-10-05T15:42:12.947Z,98597.34
2022-10-05T15:44:52.225Z,98597.69
2022-10-05T15:47:28.040Z,98590.88
2022-10-05T15:50:05.416Z,98594.88
2022-10-05T15:52:44.555Z,98595.34
2022-10-05T15:55:35.393Z,98597.91
2022-10-05T15:58:40.487Z,98596.75
2022-10-05T16:01:16.227Z,98603.41
2022-10-05T16:03:46.142Z,98609.44
2022-10-05T16:06:59.568Z,98603.03
2022-10-05T16:09:56.229Z,98611.50
2022-10-05T16:12:59.467Z,98611.09
2022-10-05T16:15:48.665Z,98615.63
2022-10-05T16:18:32.595Z,98610.91
2022-10-05T16:21:29.422Z,98619.75
2022-10-05T16:24:17.219Z,98625.94
2022-10-05T16:26:53.581Z,98630.44
2022-10-05T16:29:38.675Z,98629.63
2022-10-05T16:32:38.564Z,98630.03
2022-10-05T16:35:08.821Z,98635.56
2022-10-05T16:37:51.695Z,98628.28
2022-10-05T16:40:26.990Z,98634.63
2022-10-05T16:43:18.110Z,98641.03
2022-10-05T16:46:13.305Z,98649.19
2022-10-05T16:48:46.676Z,98649.56
2022-10-05T16:51:25.601Z,98656.13
2022-10-05T16:54:08.786Z,98660.19
2022-10-05T16:56:45.500Z,98662.56
2022-10-05T16:59:57.703Z,98666.22
2022-10-05T17:02:53.216Z,98667.41
2022-10-05T17:05:40.780Z,98665.81
2022-10-05T17:08:10.346Z,98665.16
2022-10-05T17:11:02.742Z,98668.03
2022-10-05T17:14:07.958Z,98671.31
2022-10-05T17:17:02.545Z,98672.84
2022-10-05T17:19:54.092Z,98676.09
2022-10-05T17:22:28.171Z,98677.25
2022-10-05T17:25:00.283Z,98687.88
2022-10-05T17:27:55.989Z,98692.31
2022-10-05T17:30:49.139Z,98690.78
2022-10-05T17:33:27.762Z,98689.88
2022-10-05T17:36:12.482Z,98693.88
2022-10-05T17:38:48.323Z,98704.50
2022-10-05T17:41:18.017Z,98695.03
2022-10-05T17:44:06.606Z,98701.28
2022-10-05T17:46:48.139Z,98704.97
2022-10-05T17:49:39.758Z,98705.25
2022-10-05T17:52:43.263Z,98704.22
2022-10-05T17:55:26.754Z,98710.75
2022-10-05T17:57:55.152Z,98717.69
2022-10-05T18:00:42.125Z,98714.19
2022-10-05T18:03:38.060Z,98719.25
2022-10-05T18:06:26.431Z,98725.97
2022-10-05T18:09:20.427Z,98728.19
2022-10-05T18:12:16.389Z,98729.47
2022-10-05T18:15:07.908Z,98739.22
2022-10-05T18:17:54.902Z,98730.13
2022-10-05T18:20:26.436Z,98737.66
2022-10-05T18:23:03.490Z,98733.25
2022-10-05T18:25:38.341Z,98737.28
2022-10-05T18:28:08.034Z,98739.84
2022-10-05T18:31:16.162Z,98746.53
2022-10-05T18:33:59.664Z,98747.56
2022-10-05T18:36:48.286Z,98758.13
2022-10-05T18:39:36.582Z,98758.84
2022-10-05T18:42:48.935Z,98759.00
2022-10-05T18:45:22.262Z,98758.22
2022-10-05T18:48:16.669Z,98761.41
2022-10-05T18:50:52.704Z,98759.78
2022-10-05T18:53:42.869Z,98761.13
2022-10-05T18:56:19.676Z,98769.78
2022-10-05T18:58:53.206Z,98772.16
2022-10-05T19:01:50.590Z,98781.19
2022-10-05T19:05:43.025Z,98783.19
2022-10-05T19:08:13.061Z,98779.03
2022-10-05T19:10:48.308Z,98793.38
2022-10-05T19:13:37.730Z,98798.22
2022-10-05T19:16:45.502Z,98799.03
2022-10-05T19:19:30.824Z,98802.06
2022-10-05T19:22:21.278Z,98811.75
2022-10-05T19:24:54.105Z,98807.75
2022-10-05T19:28:07.652Z,98818.78
2022-10-05T19:30:55.131Z,98825.94
2022-10-05T19:33:45.712Z,98830.47
2022-10-05T19:36:49.816Z,98831.97
2022-10-05T19:39:41.205Z,98836.81
2022-10-05T19:42:27.724Z,98841.31
2022-10-05T19:45:08.777Z,98841.69
2022-10-05T19:48:23.159Z,98854.50
2022-10-05T19:50:54.830Z,98865.00
2022-10-05T19:53:37.985Z,98865.34
2022-10-05T19:56:20.652Z,98868.66
2022-10-05T19:58:48.320Z,98875.19
2022-10-05T20:01:26.499Z,98883.69
2022-10-05T20:03:53.687Z,98888.53
2022-10-05T20:06:22.179Z,98885.22
2022-10-05T20:08:51.097Z,98886.03
2022-10-05T20:11:18.691Z,98886.72
2022-10-05T20:14:12.920Z,98886.72
2022-10-05T20:16:58.504Z,98888.06
2022-10-05T20:19:49.825Z,98896.06
2022-10-05T20:22:30.680Z,98904.41
2022-10-05T20:25:02.420Z,98913.91
2022-10-05T20:27:45.382Z,98910.22
2022-10-05T20:30:18.436Z,98915.91
2022-10-05T20:32:49.496Z,98915.09
2022-10-05T20:35:22.217Z,98919.75
2022-10-05T20:37:52.115Z,98927.06
2022-10-05T20:40:20.383Z,98924.41
2022-10-05T20:42:47.760Z,98928.41
2022-10-05T20:45:14.444Z,98931.25
2022-10-05T20:47:42.221Z,98933.41
2022-10-05T20:50:10.274Z,98936.38
2022-10-05T20:52:40.085Z,98940.75
2022-10-05T20:55:10.004Z,98946.88
2022-10-05T20:57:41.607Z,98956.88
2022-10-05T21:00:12.231Z,98953.38
2022-10-05T21:02:39.600Z,98956.72
2022-10-05T21:05:07.738Z,98955.72
2022-10-05T21:07:34.913Z,98954.06
2022-10-05T21:10:03.352Z,98960.69
2022-10-05T21:12:30.248Z,98968.34
2022-10-05T21:14:56.951Z,98964.72
2022-10-05T21:17:23.737Z,98965.69
2022-10-05T21:19:50.614Z,98971.34
2022-10-05T21:22:17.272Z,98970.72
2022-10-05T21:24:43.907Z,98967.03
2022-10-05T21:27:10.571Z,98973.38
2022-10-05T21:29:40.936Z,98980.69
2022-10-05T21:32:11.587Z,98981.66
2022-10-05T21:34:39.583Z,98973.88
2022-10-05T21:37:07.466Z,98983.84
2022-10-05T21:39:35.297Z,98979.34
2022-10-05T21:42:02.174Z,98983.69
2022-10-05T21:44:28.880Z,98983.00
2022-10-05T21:46:55.673Z,98994.84
2022-10-05T21:49:22.338Z,98993.66
2022-10-05T21:51:49.050Z,98993.00
2022-10-05T21:54:18.382Z,98988.50
2022-10-05T21:56:48.268Z,98991.69
2022-10-05T21:59:17.359Z,98997.50
2022-10-05T22:01:44.411Z,99006.66
2022-10-05T22:04:11.445Z,99007.31
2022-10-05T22:06:38.517Z,99000.31
2022-10-05T22:09:05.329Z,99000.84
2022-10-05T22:11:32.264Z,99007.44
2022-10-05T22:14:02.788Z,99005.63
2022-10-05T22:16:32.848Z,99006.09
2022-10-05T22:19:03.796Z,99006.63
2022-10-05T22:21:32.133Z,99005.25
2022-10-05T22:24:00.692Z,99001.94
2022-10-05T22:26:27.277Z,99011.06
2022-10-05T22:28:56.417Z,99010.91
2022-10-05T22:31:23.444Z,99017.56
2022-10-05T22:33:50.134Z,99023.06
2022-10-05T22:36:16.860Z,99024.38
2022-10-05T22:38:44.853Z,99020.41
2022-10-05T22:41:13.105Z,99017.25
2022-10-05T22:43:39.787Z,99023.19
2022-10-05T22:46:11.693Z,99024.56
2022-10-05T22:48:38.703Z,99029.19
2022-10-05T22:51:05.684Z,99028.19
2022-10-05T22:53:32.376Z,99027.34
2022-10-05T22:56:06.308Z,99026.53
2022-10-05T22:58:33.025Z,99030.84
2022-10-05T23:01:05.218Z,99024.69
2022-10-05T23:03:32.360Z,99031.38
2022-10-05T23:06:03.066Z,99036.84
2022-10-05T23:08:34.017Z,99030.22
2022-10-05T23:11:25.822Z,99029.88
2022-10-05T23:13:55.731Z,99032.88
2022-10-05T23:16:24.273Z,99036.16
2022-10-05T23:18:52.191Z,99042.66
2022-10-05T23:21:20.253Z,99053.16
2022-10-05T23:23:48.924Z,99047.81
2022-10-05T23:26:16.198Z,99050.84
2022-10-05T23:28:47.251Z,99041.84
2022-10-05T23:31:16.970Z,99039.84
2022-10-05T23:33:43.875Z,99040.88
2022-10-05T23:36:16.985Z,99050.16
2022-10-05T23:38:43.839Z,99045.84
2022-10-05T23:41:10.904Z,99049.19
2022-10-05T23:43:37.836Z,99054.31
2022-10-05T23:46:05.806Z,99054.00
2022-10-05T23:48:33.079Z,99064.81
2022-10-05T23:51:00.156Z,99061.63
2022-10-05T23:53:27.376Z,99062.81
2022-10-05T23:55:54.434Z,99067.47
2022-10-05T23:58:22.084Z,99068.47
